Lompoc/Vandenberg AFB, California
Current Conditions -  °F | °C
As of 7:55 AM on Thursday 30 Oct 2014 (Local Time) from KVBG Reporting Station
Broken Clouds Broken Clouds  
Wind Chill: 59°   Ceiling: 20000
Heat Index: 59°   Visibility: 10mi
Dew Point: 43°   Wind: 0mph
Humidity: 55%   Direction: NA
Pressure: 29.97"   Gusts: NA
Location:  34.75°N, 120.57°W
Report Text: KVBG 301455Z 00000KT 10SM SCT150 BKN200 BKN250 15/06 A2997 RMK AO2 SLP140 T01500061 53003 $
Loading
Personal Weather Stations






























Interactive Weather Map
Tropical Storm Tracking
New forecast layout! Learn more

10-Day Weather Forecast

Advertisements
Track Severe Weather on mobile